Aérodrome :
LOGIN :

S'inscrire | Disclaimer

   EN    FR    IT 

 










Légende :    VFR   VFR Marginal   IFR   IFR Intensif   IFR Très Intensif
Visi : 
Plafond : 
>= 8 km
>= 3000ft
5 à 8 km
1000 à 3000 ft
1500m à 5 km
500 à 1000 ft
800 à 1500m
200 à 500 ft
< 800m
< 200 ft
Symboles :   Orages  Brouillard  Fortes neiges  Fortes précipitations  Vent > 20 kt
SIGMETs :   Divers  Orages  Givrage  Turbulence  Onde Orograph.  Cendres Volcan.






- Altitude de l'aérodrome : 42 ft
- Code IATA : KGD


UMKK - Khrabrava - Kaliningrad

DERNIER METAR :
  • 171700Z 12005MPS 1200 1000SW R06/P2000D BR OVC002 08/08 Q1018 R06/19//95 TEMPO 0300 FG RMK QBB060 OBST OBSC QFE762/1017

METARs EXPIRÉS :
  • 171630Z 10004MPS 3200 BR SCT004 BKN020 08/08 Q1018 R24/19//95 TEMPO 0500 FG BKN002 RMK QBB120 OBST OBSC QFE763/1017
  • 171600Z 10003MPS 3700 BR SCT005 BKN040 08/08 Q1019 R24/19//95 NOSIG RMK QBB150 OBST OBSC QFE763/1017
  • 171530Z 10003MPS 4700 BR NSC 09/08 Q1019 R24/19//95 NOSIG RMK QFE763/1017
  • 171500Z 10004MPS 5000 BR NSC 09/08 Q1019 R24/19//95 NOSIG RMK QFE763/1017
  • 171430Z 09003MPS 7000 NSC 09/08 Q1019 R24/19//95 NOSIG RMK QFE763/1018

TAF TAF UMKK
Valide du 17 à 15h jusqu'au 18 à 15h UTC


171359Z 1715/1815 10003G08MPS 1400 BR BCFG BKN003 OVC006
TEMPO 1715/1802 0300 -DZ FG VV001
BECMG 1718/1720 12006G11MPS
BECMG 1802/1804 5000 BR FEW004 BKN011
TEMPO 1804/1810 BKN004
BECMG 1812/1814 14007G12MPS



MET'MAP, la Météo Aéronautique d'un coup d'oeil ! - Copyright ORBIFLY Décembre 2007 - Disclaimer

ORBIFLY MET'MAP TEAM :

Programmation & Développement : Alexandra Zaïnal
Conception & Développement : Baudouin d'Aumeries
Co-Programmation & Développement : Marc-Olivier Méhu
Soutien technique & logistique : Manuel Goepfert

Contact : metmap@orbifly.com




SOURCES & CREDITS :

   NOAA